sensor_id;sensor_type;location;lat;lon;timestamp;temperature;humidity
1988;DHT22;12775;46.994;15.498;2023-07-30T00:01:15;21.60;99.90
1988;DHT22;12775;46.994;15.498;2023-07-30T00:03:41;21.70;99.90
1988;DHT22;12775;46.994;15.498;2023-07-30T00:06:08;21.70;99.90
1988;DHT22;12775;46.994;15.498;2023-07-30T00:08:35;21.80;99.90
1988;DHT22;12775;46.994;15.498;2023-07-30T00:11:01;21.80;99.90
1988;DHT22;12775;46.994;15.498;2023-07-30T00:13:28;21.80;99.90
1988;DHT22;12775;46.994;15.498;2023-07-30T00:15:56;21.90;99.90
1988;DHT22;12775;46.994;15.498;2023-07-30T00:18:23;21.80;99.90
1988;DHT22;12775;46.994;15.498;2023-07-30T00:20:50;21.90;99.90
1988;DHT22;12775;46.994;15.498;2023-07-30T00:23:17;21.90;99.90
1988;DHT22;12775;46.994;15.498;2023-07-30T00:25:44;22.00;99.90
1988;DHT22;12775;46.994;15.498;2023-07-30T00:28:11;21.90;99.90
1988;DHT22;12775;46.994;15.498;2023-07-30T00:30:37;22.00;99.90
1988;DHT22;12775;46.994;15.498;2023-07-30T00:33:04;22.00;99.90
1988;DHT22;12775;46.994;15.498;2023-07-30T00:35:30;22.00;99.90
1988;DHT22;12775;46.994;15.498;2023-07-30T00:37:57;22.10;99.90
1988;DHT22;12775;46.994;15.498;2023-07-30T00:40:23;22.00;99.90
1988;DHT22;12775;46.994;15.498;2023-07-30T00:42:51;22.00;99.90
1988;DHT22;12775;46.994;15.498;2023-07-30T00:45:17;21.90;99.90
1988;DHT22;12775;46.994;15.498;2023-07-30T00:47:44;21.90;99.90
1988;DHT22;12775;46.994;15.498;2023-07-30T00:50:11;21.90;99.90
1988;DHT22;12775;46.994;15.498;2023-07-30T00:52:37;21.90;99.90
1988;DHT22;12775;46.994;15.498;2023-07-30T00:55:04;21.90;99.90
1988;DHT22;12775;46.994;15.498;2023-07-30T00:57:31;22.00;99.90
1988;DHT22;12775;46.994;15.498;2023-07-30T00:59:58;21.90;99.90
1988;DHT22;12775;46.994;15.498;2023-07-30T01:02:24;21.90;99.90
1988;DHT22;12775;46.994;15.498;2023-07-30T01:04:52;21.90;99.90
1988;DHT22;12775;46.994;15.498;2023-07-30T01:07:18;21.90;99.90
1988;DHT22;12775;46.994;15.498;2023-07-30T01:09:45;21.90;99.90
1988;DHT22;12775;46.994;15.498;2023-07-30T01:12:11;21.90;99.90
1988;DHT22;12775;46.994;15.498;2023-07-30T01:14:38;22.00;99.90
1988;DHT22;12775;46.994;15.498;2023-07-30T01:17:05;22.00;99.90
1988;DHT22;12775;46.994;15.498;2023-07-30T01:19:31;22.00;99.90
1988;DHT22;12775;46.994;15.498;2023-07-30T01:21:58;22.00;99.90
1988;DHT22;12775;46.994;15.498;2023-07-30T01:24:24;22.00;99.90
1988;DHT22;12775;46.994;15.498;2023-07-30T01:27:07;22.00;99.90
1988;DHT22;12775;46.994;15.498;2023-07-30T01:29:48;22.10;99.90
1988;DHT22;12775;46.994;15.498;2023-07-30T01:32:15;22.10;99.90
1988;DHT22;12775;46.994;15.498;2023-07-30T01:34:42;22.20;99.90
1988;DHT22;12775;46.994;15.498;2023-07-30T01:37:10;22.20;99.90
1988;DHT22;12775;46.994;15.498;2023-07-30T01:39:36;22.20;99.90
1988;DHT22;12775;46.994;15.498;2023-07-30T01:42:03;22.20;99.90
1988;DHT22;12775;46.994;15.498;2023-07-30T01:44:29;22.30;99.90
1988;DHT22;12775;46.994;15.498;2023-07-30T01:46:56;22.30;99.90
1988;DHT22;12775;46.994;15.498;2023-07-30T01:49:22;22.30;99.90
1988;DHT22;12775;46.994;15.498;2023-07-30T01:51:49;22.30;99.90
1988;DHT22;12775;46.994;15.498;2023-07-30T01:54:16;22.30;99.90
1988;DHT22;12775;46.994;15.498;2023-07-30T01:56:42;22.30;99.90
1988;DHT22;12775;46.994;15.498;2023-07-30T01:59:09;22.30;99.90
1988;DHT22;12775;46.994;15.498;2023-07-30T02:01:35;22.30;99.90
1988;DHT22;12775;46.994;15.498;2023-07-30T02:04:02;22.30;99.90
1988;DHT22;12775;46.994;15.498;2023-07-30T02:06:29;22.40;99.90
1988;DHT22;12775;46.994;15.498;2023-07-30T02:08:55;22.40;99.90
1988;DHT22;12775;46.994;15.498;2023-07-30T02:11:22;22.40;99.90
1988;DHT22;12775;46.994;15.498;2023-07-30T02:13:48;22.40;99.90
1988;DHT22;12775;46.994;15.498;2023-07-30T02:16:15;22.40;99.90
1988;DHT22;12775;46.994;15.498;2023-07-30T02:18:41;22.40;99.90
1988;DHT22;12775;46.994;15.498;2023-07-30T02:21:08;22.40;99.90
1988;DHT22;12775;46.994;15.498;2023-07-30T02:23:35;22.50;99.90
1988;DHT22;12775;46.994;15.498;2023-07-30T02:26:01;22.40;99.90
1988;DHT22;12775;46.994;15.498;2023-07-30T02:28:28;22.40;99.90
1988;DHT22;12775;46.994;15.498;2023-07-30T02:30:54;22.40;99.90
1988;DHT22;12775;46.994;15.498;2023-07-30T02:33:22;22.30;99.90
1988;DHT22;12775;46.994;15.498;2023-07-30T02:35:49;22.30;99.90
1988;DHT22;12775;46.994;15.498;2023-07-30T02:38:15;22.40;99.90
1988;DHT22;12775;46.994;15.498;2023-07-30T02:40:42;22.40;99.90
1988;DHT22;12775;46.994;15.498;2023-07-30T02:43:08;22.30;99.90
1988;DHT22;12775;46.994;15.498;2023-07-30T02:45:35;22.30;99.90
1988;DHT22;12775;46.994;15.498;2023-07-30T02:48:02;22.30;99.90
1988;DHT22;12775;46.994;15.498;2023-07-30T02:50:29;22.40;99.90
1988;DHT22;12775;46.994;15.498;2023-07-30T02:52:56;22.30;99.90
1988;DHT22;12775;46.994;15.498;2023-07-30T02:55:22;22.40;99.90
1988;DHT22;12775;46.994;15.498;2023-07-30T02:57:49;22.40;99.90
1988;DHT22;12775;46.994;15.498;2023-07-30T03:00:16;22.40;99.90
1988;DHT22;12775;46.994;15.498;2023-07-30T03:02:42;22.40;99.90
1988;DHT22;12775;46.994;15.498;2023-07-30T03:05:09;22.40;99.90
1988;DHT22;12775;46.994;15.498;2023-07-30T03:07:36;22.40;99.90
1988;DHT22;12775;46.994;15.498;2023-07-30T03:10:04;22.40;99.90
1988;DHT22;12775;46.994;15.498;2023-07-30T03:12:31;22.40;99.90
1988;DHT22;12775;46.994;15.498;2023-07-30T03:14:58;22.40;99.90
1988;DHT22;12775;46.994;15.498;2023-07-30T03:17:25;22.40;99.90
1988;DHT22;12775;46.994;15.498;2023-07-30T03:19:51;22.40;99.90
1988;DHT22;12775;46.994;15.498;2023-07-30T03:22:17;22.40;99.90
1988;DHT22;12775;46.994;15.498;2023-07-30T03:24:45;22.30;99.90
1988;DHT22;12775;46.994;15.498;2023-07-30T03:27:11;22.30;99.90
1988;DHT22;12775;46.994;15.498;2023-07-30T03:29:38;22.30;99.90
1988;DHT22;12775;46.994;15.498;2023-07-30T03:32:05;22.30;99.90
1988;DHT22;12775;46.994;15.498;2023-07-30T03:34:32;22.30;99.90
1988;DHT22;12775;46.994;15.498;2023-07-30T03:36:58;22.30;99.90
1988;DHT22;12775;46.994;15.498;2023-07-30T03:39:25;22.30;99.90
1988;DHT22;12775;46.994;15.498;2023-07-30T03:41:52;22.30;99.90
1988;DHT22;12775;46.994;15.498;2023-07-30T03:44:18;22.30;99.90
1988;DHT22;12775;46.994;15.498;2023-07-30T03:46:45;22.30;99.90
1988;DHT22;12775;46.994;15.498;2023-07-30T03:49:11;22.30;99.90
1988;DHT22;12775;46.994;15.498;2023-07-30T03:51:38;22.30;99.90
1988;DHT22;12775;46.994;15.498;2023-07-30T03:54:05;22.30;99.90
1988;DHT22;12775;46.994;15.498;2023-07-30T03:56:32;22.40;99.90
1988;DHT22;12775;46.994;15.498;2023-07-30T03:58:59;22.40;99.90
1988;DHT22;12775;46.994;15.498;2023-07-30T04:01:26;22.30;99.90
1988;DHT22;12775;46.994;15.498;2023-07-30T04:03:52;22.40;99.90
1988;DHT22;12775;46.994;15.498;2023-07-30T04:06:19;22.40;99.90
1988;DHT22;12775;46.994;15.498;2023-07-30T04:08:46;22.40;99.90
1988;DHT22;12775;46.994;15.498;2023-07-30T04:11:12;22.40;99.90
1988;DHT22;12775;46.994;15.498;2023-07-30T04:13:39;22.40;99.90
1988;DHT22;12775;46.994;15.498;2023-07-30T04:16:06;22.40;99.90
1988;DHT22;12775;46.994;15.498;2023-07-30T04:18:33;22.50;99.90
1988;DHT22;12775;46.994;15.498;2023-07-30T04:20:59;22.50;99.90
1988;DHT22;12775;46.994;15.498;2023-07-30T04:23:26;22.50;99.90
1988;DHT22;12775;46.994;15.498;2023-07-30T04:25:53;22.50;99.90
1988;DHT22;12775;46.994;15.498;2023-07-30T04:28:19;22.50;99.90
1988;DHT22;12775;46.994;15.498;2023-07-30T04:30:46;22.50;99.90
1988;DHT22;12775;46.994;15.498;2023-07-30T04:33:13;22.50;99.90
1988;DHT22;12775;46.994;15.498;2023-07-30T04:35:39;22.60;99.90
1988;DHT22;12775;46.994;15.498;2023-07-30T04:38:06;22.50;99.90
1988;DHT22;12775;46.994;15.498;2023-07-30T04:40:32;22.50;99.90
1988;DHT22;12775;46.994;15.498;2023-07-30T04:43:00;22.50;99.90
1988;DHT22;12775;46.994;15.498;2023-07-30T04:45:26;22.50;99.90
1988;DHT22;12775;46.994;15.498;2023-07-30T04:47:53;22.40;99.90
1988;DHT22;12775;46.994;15.498;2023-07-30T04:50:20;22.40;99.90
1988;DHT22;12775;46.994;15.498;2023-07-30T04:52:47;22.30;99.90
1988;DHT22;12775;46.994;15.498;2023-07-30T04:55:14;22.30;99.90
1988;DHT22;12775;46.994;15.498;2023-07-30T04:57:40;22.30;99.90
1988;DHT22;12775;46.994;15.498;2023-07-30T05:00:07;22.30;99.90
1988;DHT22;12775;46.994;15.498;2023-07-30T05:02:34;22.20;99.90
1988;DHT22;12775;46.994;15.498;2023-07-30T05:05:00;22.20;99.90
1988;DHT22;12775;46.994;15.498;2023-07-30T05:07:27;22.20;99.90
1988;DHT22;12775;46.994;15.498;2023-07-30T05:09:54;22.20;99.90
1988;DHT22;12775;46.994;15.498;2023-07-30T05:12:21;22.10;99.90
1988;DHT22;12775;46.994;15.498;2023-07-30T05:14:48;22.10;99.90
1988;DHT22;12775;46.994;15.498;2023-07-30T05:17:14;22.10;99.90
1988;DHT22;12775;46.994;15.498;2023-07-30T05:19:41;22.10;99.90
1988;DHT22;12775;46.994;15.498;2023-07-30T05:22:07;22.10;99.90
1988;DHT22;12775;46.994;15.498;2023-07-30T05:24:35;22.10;99.90
1988;DHT22;12775;46.994;15.498;2023-07-30T05:27:01;22.10;99.90
1988;DHT22;12775;46.994;15.498;2023-07-30T05:29:28;22.00;99.90
1988;DHT22;12775;46.994;15.498;2023-07-30T05:31:55;22.00;99.90
1988;DHT22;12775;46.994;15.498;2023-07-30T05:34:22;22.00;99.90
1988;DHT22;12775;46.994;15.498;2023-07-30T05:36:50;22.00;99.90
1988;DHT22;12775;46.994;15.498;2023-07-30T05:39:17;22.00;99.90
1988;DHT22;12775;46.994;15.498;2023-07-30T05:41:43;21.90;99.90
1988;DHT22;12775;46.994;15.498;2023-07-30T05:44:10;22.00;99.90
1988;DHT22;12775;46.994;15.498;2023-07-30T05:46:37;21.90;99.90
1988;DHT22;12775;46.994;15.498;2023-07-30T05:49:05;21.90;99.90
1988;DHT22;12775;46.994;15.498;2023-07-30T05:51:32;21.90;99.90
1988;DHT22;12775;46.994;15.498;2023-07-30T05:53:58;21.80;99.90
1988;DHT22;12775;46.994;15.498;2023-07-30T05:56:25;21.80;99.90
1988;DHT22;12775;46.994;15.498;2023-07-30T05:58:51;21.80;99.90
1988;DHT22;12775;46.994;15.498;2023-07-30T06:01:18;21.80;99.90
1988;DHT22;12775;46.994;15.498;2023-07-30T06:03:45;21.80;99.90
1988;DHT22;12775;46.994;15.498;2023-07-30T06:06:11;21.90;99.90
1988;DHT22;12775;46.994;15.498;2023-07-30T06:08:38;21.90;99.90
1988;DHT22;12775;46.994;15.498;2023-07-30T06:11:05;21.80;99.90
1988;DHT22;12775;46.994;15.498;2023-07-30T06:13:32;21.70;99.90
1988;DHT22;12775;46.994;15.498;2023-07-30T06:16:00;21.70;99.90
1988;DHT22;12775;46.994;15.498;2023-07-30T06:18:26;21.70;99.90
1988;DHT22;12775;46.994;15.498;2023-07-30T06:20:53;21.70;99.90
1988;DHT22;12775;46.994;15.498;2023-07-30T06:23:20;21.70;99.90
1988;DHT22;12775;46.994;15.498;2023-07-30T06:25:46;21.70;99.90
1988;DHT22;12775;46.994;15.498;2023-07-30T06:28:13;21.70;99.90
1988;DHT22;12775;46.994;15.498;2023-07-30T06:30:39;21.70;99.90
1988;DHT22;12775;46.994;15.498;2023-07-30T06:33:07;21.70;99.90
1988;DHT22;12775;46.994;15.498;2023-07-30T06:35:33;21.70;99.90
1988;DHT22;12775;46.994;15.498;2023-07-30T06:38:00;21.70;99.90
1988;DHT22;12775;46.994;15.498;2023-07-30T06:40:27;21.60;99.90
1988;DHT22;12775;46.994;15.498;2023-07-30T06:42:53;21.70;99.90
1988;DHT22;12775;46.994;15.498;2023-07-30T06:45:20;21.70;99.90
1988;DHT22;12775;46.994;15.498;2023-07-30T06:47:46;21.70;99.90
1988;DHT22;12775;46.994;15.498;2023-07-30T06:50:13;21.70;99.90
1988;DHT22;12775;46.994;15.498;2023-07-30T06:52:39;21.70;99.90
1988;DHT22;12775;46.994;15.498;2023-07-30T06:55:06;21.80;99.90
1988;DHT22;12775;46.994;15.498;2023-07-30T06:57:33;21.80;99.90
1988;DHT22;12775;46.994;15.498;2023-07-30T07:00:00;21.90;99.90
1988;DHT22;12775;46.994;15.498;2023-07-30T07:02:26;22.00;99.90
1988;DHT22;12775;46.994;15.498;2023-07-30T07:04:53;21.90;99.90
1988;DHT22;12775;46.994;15.498;2023-07-30T07:07:20;21.90;99.90
1988;DHT22;12775;46.994;15.498;2023-07-30T07:09:46;21.90;99.90
1988;DHT22;12775;46.994;15.498;2023-07-30T07:12:13;21.90;99.90
1988;DHT22;12775;46.994;15.498;2023-07-30T07:14:40;22.10;99.90
1988;DHT22;12775;46.994;15.498;2023-07-30T07:17:07;22.10;99.90
1988;DHT22;12775;46.994;15.498;2023-07-30T07:19:33;22.20;99.90
1988;DHT22;12775;46.994;15.498;2023-07-30T07:22:00;22.30;99.90
1988;DHT22;12775;46.994;15.498;2023-07-30T07:24:26;22.40;99.90
1988;DHT22;12775;46.994;15.498;2023-07-30T07:26:53;22.40;99.90
1988;DHT22;12775;46.994;15.498;2023-07-30T07:29:19;22.50;99.90
1988;DHT22;12775;46.994;15.498;2023-07-30T07:31:46;22.60;99.90
1988;DHT22;12775;46.994;15.498;2023-07-30T07:34:13;22.70;99.90
1988;DHT22;12775;46.994;15.498;2023-07-30T07:36:39;22.90;99.90
1988;DHT22;12775;46.994;15.498;2023-07-30T07:39:06;23.10;99.90
1988;DHT22;12775;46.994;15.498;2023-07-30T07:41:33;23.30;99.90
1988;DHT22;12775;46.994;15.498;2023-07-30T07:43:59;23.40;99.90
1988;DHT22;12775;46.994;15.498;2023-07-30T07:46:26;23.50;99.90
1988;DHT22;12775;46.994;15.498;2023-07-30T07:48:52;23.70;99.90
1988;DHT22;12775;46.994;15.498;2023-07-30T07:51:19;23.90;99.90
1988;DHT22;12775;46.994;15.498;2023-07-30T07:53:45;24.00;99.90
1988;DHT22;12775;46.994;15.498;2023-07-30T07:56:12;24.10;99.90
1988;DHT22;12775;46.994;15.498;2023-07-30T07:58:39;24.20;99.90
1988;DHT22;12775;46.994;15.498;2023-07-30T08:01:05;24.30;99.90
1988;DHT22;12775;46.994;15.498;2023-07-30T08:03:32;24.40;99.90
1988;DHT22;12775;46.994;15.498;2023-07-30T08:05:58;24.50;99.90
1988;DHT22;12775;46.994;15.498;2023-07-30T08:08:25;24.70;99.90
1988;DHT22;12775;46.994;15.498;2023-07-30T08:10:52;24.90;99.90
1988;DHT22;12775;46.994;15.498;2023-07-30T08:13:18;24.90;99.90
1988;DHT22;12775;46.994;15.498;2023-07-30T08:15:45;25.00;99.90
1988;DHT22;12775;46.994;15.498;2023-07-30T08:18:11;25.10;99.90
1988;DHT22;12775;46.994;15.498;2023-07-30T08:20:38;25.20;99.90
1988;DHT22;12775;46.994;15.498;2023-07-30T08:23:05;25.20;99.90
1988;DHT22;12775;46.994;15.498;2023-07-30T08:25:32;25.10;99.90
1988;DHT22;12775;46.994;15.498;2023-07-30T08:27:58;25.20;99.90
1988;DHT22;12775;46.994;15.498;2023-07-30T08:30:24;25.10;99.90
1988;DHT22;12775;46.994;15.498;2023-07-30T08:32:51;25.10;99.90
1988;DHT22;12775;46.994;15.498;2023-07-30T08:35:19;25.10;99.90
1988;DHT22;12775;46.994;15.498;2023-07-30T08:37:45;25.30;99.90
1988;DHT22;12775;46.994;15.498;2023-07-30T08:40:12;25.40;99.90
1988;DHT22;12775;46.994;15.498;2023-07-30T08:42:38;25.40;99.90
1988;DHT22;12775;46.994;15.498;2023-07-30T08:45:05;25.50;99.90
1988;DHT22;12775;46.994;15.498;2023-07-30T08:47:32;25.60;99.90
1988;DHT22;12775;46.994;15.498;2023-07-30T08:49:58;25.60;99.90
1988;DHT22;12775;46.994;15.498;2023-07-30T08:52:25;25.80;99.90
1988;DHT22;12775;46.994;15.498;2023-07-30T08:54:52;25.90;99.90
1988;DHT22;12775;46.994;15.498;2023-07-30T08:57:18;26.10;99.90
1988;DHT22;12775;46.994;15.498;2023-07-30T08:59:49;26.30;99.40
1988;DHT22;12775;46.994;15.498;2023-07-30T09:02:18;26.50;99.90
1988;DHT22;12775;46.994;15.498;2023-07-30T09:04:40;26.80;99.90
1988;DHT22;12775;46.994;15.498;2023-07-30T09:07:08;26.80;98.20
1988;DHT22;12775;46.994;15.498;2023-07-30T09:09:35;27.10;97.60
1988;DHT22;12775;46.994;15.498;2023-07-30T09:12:01;27.30;99.90
1988;DHT22;12775;46.994;15.498;2023-07-30T09:14:28;27.60;99.90
1988;DHT22;12775;46.994;15.498;2023-07-30T09:16:56;27.70;99.90
1988;DHT22;12775;46.994;15.498;2023-07-30T09:19:23;27.70;99.90
1988;DHT22;12775;46.994;15.498;2023-07-30T09:21:49;28.00;99.90
1988;DHT22;12775;46.994;15.498;2023-07-30T09:24:20;28.30;99.90
1988;DHT22;12775;46.994;15.498;2023-07-30T09:26:45;28.60;98.80
1988;DHT22;12775;46.994;15.498;2023-07-30T09:29:10;28.90;98.20
1988;DHT22;12775;46.994;15.498;2023-07-30T09:31:47;28.80;98.20
1988;DHT22;12775;46.994;15.498;2023-07-30T09:34:15;29.20;96.60
1988;DHT22;12775;46.994;15.498;2023-07-30T09:36:43;29.30;94.10
1988;DHT22;12775;46.994;15.498;2023-07-30T09:39:15;29.30;93.60
1988;DHT22;12775;46.994;15.498;2023-07-30T09:41:42;29.40;93.60
1988;DHT22;12775;46.994;15.498;2023-07-30T09:44:08;29.50;95.10
1988;DHT22;12775;46.994;15.498;2023-07-30T09:46:41;29.90;96.90
1988;DHT22;12775;46.994;15.498;2023-07-30T09:49:01;29.80;94.10
1988;DHT22;12775;46.994;15.498;2023-07-30T09:51:28;29.60;92.30
1988;DHT22;12775;46.994;15.498;2023-07-30T09:53:55;29.50;91.30
1988;DHT22;12775;46.994;15.498;2023-07-30T09:56:21;29.70;96.60
1988;DHT22;12775;46.994;15.498;2023-07-30T09:58:48;29.80;96.60
1988;DHT22;12775;46.994;15.498;2023-07-30T10:01:14;29.80;92.40
1988;DHT22;12775;46.994;15.498;2023-07-30T10:03:41;29.70;91.10
1988;DHT22;12775;46.994;15.498;2023-07-30T10:06:08;29.80;87.80
1988;DHT22;12775;46.994;15.498;2023-07-30T10:08:36;29.80;93.00
1988;DHT22;12775;46.994;15.498;2023-07-30T10:11:03;29.80;93.70
1988;DHT22;12775;46.994;15.498;2023-07-30T10:13:31;30.10;93.80
1988;DHT22;12775;46.994;15.498;2023-07-30T10:15:59;30.20;87.30
1988;DHT22;12775;46.994;15.498;2023-07-30T10:18:37;30.30;90.00
1988;DHT22;12775;46.994;15.498;2023-07-30T10:21:00;30.30;87.40
1988;DHT22;12775;46.994;15.498;2023-07-30T10:23:27;30.30;87.40
1988;DHT22;12775;46.994;15.498;2023-07-30T10:25:55;30.40;88.40
1988;DHT22;12775;46.994;15.498;2023-07-30T10:28:32;30.60;87.40
1988;DHT22;12775;46.994;15.498;2023-07-30T10:31:00;30.70;92.30
1988;DHT22;12775;46.994;15.498;2023-07-30T10:35:58;30.60;90.30
1988;DHT22;12775;46.994;15.498;2023-07-30T10:38:28;30.50;83.70
1988;DHT22;12775;46.994;15.498;2023-07-30T10:41:00;30.50;90.60
1988;DHT22;12775;46.994;15.498;2023-07-30T10:43:30;30.60;87.60
1988;DHT22;12775;46.994;15.498;2023-07-30T10:45:57;30.70;83.20
1988;DHT22;12775;46.994;15.498;2023-07-30T10:48:31;30.70;84.50
1988;DHT22;12775;46.994;15.498;2023-07-30T10:50:57;30.70;83.70
1988;DHT22;12775;46.994;15.498;2023-07-30T10:53:24;30.60;83.80
1988;DHT22;12775;46.994;15.498;2023-07-30T10:55:50;30.70;83.10
1988;DHT22;12775;46.994;15.498;2023-07-30T10:58:17;30.90;88.70
1988;DHT22;12775;46.994;15.498;2023-07-30T11:00:44;31.10;83.00
1988;DHT22;12775;46.994;15.498;2023-07-30T11:03:10;31.00;80.50
1988;DHT22;12775;46.994;15.498;2023-07-30T11:05:38;31.10;83.40
1988;DHT22;12775;46.994;15.498;2023-07-30T11:08:05;31.10;83.40
1988;DHT22;12775;46.994;15.498;2023-07-30T11:10:31;31.20;86.40
1988;DHT22;12775;46.994;15.498;2023-07-30T11:12:59;31.10;87.30
1988;DHT22;12775;46.994;15.498;2023-07-30T11:15:25;31.10;87.40
1988;DHT22;12775;46.994;15.498;2023-07-30T11:17:52;31.30;83.60
1988;DHT22;12775;46.994;15.498;2023-07-30T11:20:25;31.30;87.40
1988;DHT22;12775;46.994;15.498;2023-07-30T11:22:52;31.40;82.70
1988;DHT22;12775;46.994;15.498;2023-07-30T11:25:18;31.40;86.70
1988;DHT22;12775;46.994;15.498;2023-07-30T11:27:46;31.40;79.30
1988;DHT22;12775;46.994;15.498;2023-07-30T11:30:12;31.50;79.00
1988;DHT22;12775;46.994;15.498;2023-07-30T11:32:39;31.40;78.50
1988;DHT22;12775;46.994;15.498;2023-07-30T11:35:06;31.30;77.00
1988;DHT22;12775;46.994;15.498;2023-07-30T11:37:33;31.00;78.00
1988;DHT22;12775;46.994;15.498;2023-07-30T11:39:59;30.80;74.60
1988;DHT22;12775;46.994;15.498;2023-07-30T11:42:26;30.90;85.00
1988;DHT22;12775;46.994;15.498;2023-07-30T11:44:52;31.10;82.40
1988;DHT22;12775;46.994;15.498;2023-07-30T11:47:21;31.10;80.70
1988;DHT22;12775;46.994;15.498;2023-07-30T11:49:55;31.40;81.20
1988;DHT22;12775;46.994;15.498;2023-07-30T11:52:22;31.60;88.30
1988;DHT22;12775;46.994;15.498;2023-07-30T11:54:59;31.80;78.60
1988;DHT22;12775;46.994;15.498;2023-07-30T11:57:15;32.10;81.80
1988;DHT22;12775;46.994;15.498;2023-07-30T11:59:42;32.20;84.80
1988;DHT22;12775;46.994;15.498;2023-07-30T12:02:14;32.50;81.90
1988;DHT22;12775;46.994;15.498;2023-07-30T12:04:43;32.60;85.30
1988;DHT22;12775;46.994;15.498;2023-07-30T12:07:09;32.70;83.80
1988;DHT22;12775;46.994;15.498;2023-07-30T12:09:36;32.70;76.70
1988;DHT22;12775;46.994;15.498;2023-07-30T12:12:03;32.80;83.60
1988;DHT22;12775;46.994;15.498;2023-07-30T12:14:42;32.80;77.30
1988;DHT22;12775;46.994;15.498;2023-07-30T12:16:56;32.80;77.80
1988;DHT22;12775;46.994;15.498;2023-07-30T12:19:22;32.90;79.10
1988;DHT22;12775;46.994;15.498;2023-07-30T12:21:49;32.90;73.90
1988;DHT22;12775;46.994;15.498;2023-07-30T12:24:16;32.90;76.90
1988;DHT22;12775;46.994;15.498;2023-07-30T12:26:42;33.00;77.80
1988;DHT22;12775;46.994;15.498;2023-07-30T12:29:09;32.80;80.50
1988;DHT22;12775;46.994;15.498;2023-07-30T12:31:35;32.90;82.60
1988;DHT22;12775;46.994;15.498;2023-07-30T12:34:02;32.80;77.80
1988;DHT22;12775;46.994;15.498;2023-07-30T12:36:29;32.70;82.10
1988;DHT22;12775;46.994;15.498;2023-07-30T12:38:55;32.60;74.10
1988;DHT22;12775;46.994;15.498;2023-07-30T12:41:22;32.40;72.60
1988;DHT22;12775;46.994;15.498;2023-07-30T12:43:48;32.10;72.70
1988;DHT22;12775;46.994;15.498;2023-07-30T12:46:15;32.00;79.60
1988;DHT22;12775;46.994;15.498;2023-07-30T12:48:42;31.80;77.40
1988;DHT22;12775;46.994;15.498;2023-07-30T12:51:08;31.80;75.80
1988;DHT22;12775;46.994;15.498;2023-07-30T12:53:35;31.90;74.10
1988;DHT22;12775;46.994;15.498;2023-07-30T12:56:01;31.60;73.50
1988;DHT22;12775;46.994;15.498;2023-07-30T12:58:28;31.80;76.60
1988;DHT22;12775;46.994;15.498;2023-07-30T13:00:55;32.00;76.70
1988;DHT22;12775;46.994;15.498;2023-07-30T13:03:22;32.10;76.30
1988;DHT22;12775;46.994;15.498;2023-07-30T13:05:49;32.20;72.10
1988;DHT22;12775;46.994;15.498;2023-07-30T13:08:17;32.50;81.20
1988;DHT22;12775;46.994;15.498;2023-07-30T13:10:44;32.40;81.00
1988;DHT22;12775;46.994;15.498;2023-07-30T13:13:11;32.50;79.40
1988;DHT22;12775;46.994;15.498;2023-07-30T13:15:38;32.40;75.90
1988;DHT22;12775;46.994;15.498;2023-07-30T13:18:05;32.30;76.90
1988;DHT22;12775;46.994;15.498;2023-07-30T13:20:31;32.00;81.90
1988;DHT22;12775;46.994;15.498;2023-07-30T13:22:58;32.20;83.90
1988;DHT22;12775;46.994;15.498;2023-07-30T13:25:24;32.30;77.20
1988;DHT22;12775;46.994;15.498;2023-07-30T13:27:51;32.40;72.10
1988;DHT22;12775;46.994;15.498;2023-07-30T13:30:18;32.50;77.50
1988;DHT22;12775;46.994;15.498;2023-07-30T13:32:44;32.70;82.10
1988;DHT22;12775;46.994;15.498;2023-07-30T13:35:11;32.80;72.70
1988;DHT22;12775;46.994;15.498;2023-07-30T13:37:37;32.70;74.70
1988;DHT22;12775;46.994;15.498;2023-07-30T13:40:05;32.60;77.80
1988;DHT22;12775;46.994;15.498;2023-07-30T13:42:32;32.60;78.00
1988;DHT22;12775;46.994;15.498;2023-07-30T13:44:58;32.60;78.40
1988;DHT22;12775;46.994;15.498;2023-07-30T13:47:25;32.80;77.00
1988;DHT22;12775;46.994;15.498;2023-07-30T13:49:52;32.70;71.10
1988;DHT22;12775;46.994;15.498;2023-07-30T13:52:18;32.60;79.00
1988;DHT22;12775;46.994;15.498;2023-07-30T13:54:45;32.60;72.10
1988;DHT22;12775;46.994;15.498;2023-07-30T13:57:11;32.60;74.50
1988;DHT22;12775;46.994;15.498;2023-07-30T13:59:38;32.60;77.40
1988;DHT22;12775;46.994;15.498;2023-07-30T14:02:05;32.50;74.30
1988;DHT22;12775;46.994;15.498;2023-07-30T14:04:31;32.40;72.90
1988;DHT22;12775;46.994;15.498;2023-07-30T14:06:58;32.30;74.60
1988;DHT22;12775;46.994;15.498;2023-07-30T14:09:25;32.20;73.30
1988;DHT22;12775;46.994;15.498;2023-07-30T14:11:52;32.30;74.70
1988;DHT22;12775;46.994;15.498;2023-07-30T14:14:19;32.20;74.00
1988;DHT22;12775;46.994;15.498;2023-07-30T14:16:45;32.30;77.20
1988;DHT22;12775;46.994;15.498;2023-07-30T14:19:12;32.40;71.10
1988;DHT22;12775;46.994;15.498;2023-07-30T14:21:38;32.30;71.50
1988;DHT22;12775;46.994;15.498;2023-07-30T14:24:05;32.20;73.40
1988;DHT22;12775;46.994;15.498;2023-07-30T14:26:32;31.90;73.90
1988;DHT22;12775;46.994;15.498;2023-07-30T14:28:58;31.90;73.50
1988;DHT22;12775;46.994;15.498;2023-07-30T14:31:25;31.80;74.40
1988;DHT22;12775;46.994;15.498;2023-07-30T14:33:51;31.60;73.50
1988;DHT22;12775;46.994;15.498;2023-07-30T14:36:18;31.60;74.80
1988;DHT22;12775;46.994;15.498;2023-07-30T14:38:45;31.40;71.20
1988;DHT22;12775;46.994;15.498;2023-07-30T14:41:11;31.30;72.50
1988;DHT22;12775;46.994;15.498;2023-07-30T14:43:39;31.20;76.10
1988;DHT22;12775;46.994;15.498;2023-07-30T14:46:06;31.20;76.10
1988;DHT22;12775;46.994;15.498;2023-07-30T14:48:33;31.20;75.40
1988;DHT22;12775;46.994;15.498;2023-07-30T14:50:59;31.40;76.00
1988;DHT22;12775;46.994;15.498;2023-07-30T14:53:26;31.50;74.10
1988;DHT22;12775;46.994;15.498;2023-07-30T14:55:53;31.50;76.50
1988;DHT22;12775;46.994;15.498;2023-07-30T14:58:19;31.30;75.20
1988;DHT22;12775;46.994;15.498;2023-07-30T15:00:46;31.40;74.20
1988;DHT22;12775;46.994;15.498;2023-07-30T15:03:12;31.30;72.60
1988;DHT22;12775;46.994;15.498;2023-07-30T15:05:39;31.00;73.20
1988;DHT22;12775;46.994;15.498;2023-07-30T15:08:06;31.00;75.30
1988;DHT22;12775;46.994;15.498;2023-07-30T15:10:32;30.70;75.30
1988;DHT22;12775;46.994;15.498;2023-07-30T15:13:00;30.70;77.00
1988;DHT22;12775;46.994;15.498;2023-07-30T15:15:26;30.40;76.30
1988;DHT22;12775;46.994;15.498;2023-07-30T15:17:53;30.30;79.70
1988;DHT22;12775;46.994;15.498;2023-07-30T15:20:19;30.20;80.00
1988;DHT22;12775;46.994;15.498;2023-07-30T15:22:46;30.10;79.10
1988;DHT22;12775;46.994;15.498;2023-07-30T15:25:13;29.70;77.50
1988;DHT22;12775;46.994;15.498;2023-07-30T15:27:40;29.40;75.20
1988;DHT22;12775;46.994;15.498;2023-07-30T15:30:07;29.30;75.30